sensor_id;sensor_type;location;lat;lon;timestamp;temperature;humidity
4556;DHT22;2290;48.674;9.018;2024-03-25T00:00:22;4.80;99.90
4556;DHT22;2290;48.674;9.018;2024-03-25T00:02:52;4.80;99.90
4556;DHT22;2290;48.674;9.018;2024-03-25T00:05:17;4.70;99.90
4556;DHT22;2290;48.674;9.018;2024-03-25T00:07:48;4.80;99.90
4556;DHT22;2290;48.674;9.018;2024-03-25T00:10:14;4.80;99.90
4556;DHT22;2290;48.674;9.018;2024-03-25T00:12:40;4.80;99.90
4556;DHT22;2290;48.674;9.018;2024-03-25T00:15:06;4.80;99.90
4556;DHT22;2290;48.674;9.018;2024-03-25T00:17:33;4.70;99.90
4556;DHT22;2290;48.674;9.018;2024-03-25T00:19:59;4.80;99.90
4556;DHT22;2290;48.674;9.018;2024-03-25T00:22:24;4.80;99.90
4556;DHT22;2290;48.674;9.018;2024-03-25T00:24:53;4.80;99.90
4556;DHT22;2290;48.674;9.018;2024-03-25T00:27:18;4.80;99.90
4556;DHT22;2290;48.674;9.018;2024-03-25T00:29:44;4.80;99.90
4556;DHT22;2290;48.674;9.018;2024-03-25T00:32:10;4.70;99.90
4556;DHT22;2290;48.674;9.018;2024-03-25T00:34:35;4.70;99.90
4556;DHT22;2290;48.674;9.018;2024-03-25T00:37:01;4.70;99.90
4556;DHT22;2290;48.674;9.018;2024-03-25T00:39:27;4.70;99.90
4556;DHT22;2290;48.674;9.018;2024-03-25T00:41:54;4.70;99.90
4556;DHT22;2290;48.674;9.018;2024-03-25T00:44:20;4.70;99.90
4556;DHT22;2290;48.674;9.018;2024-03-25T00:46:45;4.80;99.90
4556;DHT22;2290;48.674;9.018;2024-03-25T00:49:12;4.80;99.90
4556;DHT22;2290;48.674;9.018;2024-03-25T00:51:38;4.70;99.90
4556;DHT22;2290;48.674;9.018;2024-03-25T00:54:04;4.70;99.90
4556;DHT22;2290;48.674;9.018;2024-03-25T00:56:31;4.70;99.90
4556;DHT22;2290;48.674;9.018;2024-03-25T00:58:57;4.80;99.90
4556;DHT22;2290;48.674;9.018;2024-03-25T01:01:28;4.80;99.90
4556;DHT22;2290;48.674;9.018;2024-03-25T01:03:54;4.80;99.90
4556;DHT22;2290;48.674;9.018;2024-03-25T01:06:19;4.70;99.90
4556;DHT22;2290;48.674;9.018;2024-03-25T01:08:45;4.80;99.90
4556;DHT22;2290;48.674;9.018;2024-03-25T01:11:11;4.80;99.90
4556;DHT22;2290;48.674;9.018;2024-03-25T01:13:36;4.80;99.90
4556;DHT22;2290;48.674;9.018;2024-03-25T01:16:02;4.80;99.90
4556;DHT22;2290;48.674;9.018;2024-03-25T01:18:28;4.80;99.90
4556;DHT22;2290;48.674;9.018;2024-03-25T01:20:54;4.80;99.90
4556;DHT22;2290;48.674;9.018;2024-03-25T01:23:20;4.80;99.90
4556;DHT22;2290;48.674;9.018;2024-03-25T01:25:45;4.90;99.90
4556;DHT22;2290;48.674;9.018;2024-03-25T01:28:12;4.90;99.90
4556;DHT22;2290;48.674;9.018;2024-03-25T01:30:38;4.90;99.90
4556;DHT22;2290;48.674;9.018;2024-03-25T01:33:06;4.90;99.90
4556;DHT22;2290;48.674;9.018;2024-03-25T01:35:32;4.90;99.90
4556;DHT22;2290;48.674;9.018;2024-03-25T01:37:57;4.80;99.90
4556;DHT22;2290;48.674;9.018;2024-03-25T01:40:23;4.90;99.90
4556;DHT22;2290;48.674;9.018;2024-03-25T01:43:01;4.90;99.90
4556;DHT22;2290;48.674;9.018;2024-03-25T01:45:29;4.90;99.90
4556;DHT22;2290;48.674;9.018;2024-03-25T01:47:56;4.90;99.90
4556;DHT22;2290;48.674;9.018;2024-03-25T01:50:23;4.80;99.90
4556;DHT22;2290;48.674;9.018;2024-03-25T01:52:49;4.80;99.90
4556;DHT22;2290;48.674;9.018;2024-03-25T01:55:18;4.80;99.90
4556;DHT22;2290;48.674;9.018;2024-03-25T01:57:46;4.80;99.90
4556;DHT22;2290;48.674;9.018;2024-03-25T02:00:13;4.80;99.90
4556;DHT22;2290;48.674;9.018;2024-03-25T02:02:41;4.80;99.90
4556;DHT22;2290;48.674;9.018;2024-03-25T02:05:15;4.80;99.90
4556;DHT22;2290;48.674;9.018;2024-03-25T02:07:41;4.70;99.90
4556;DHT22;2290;48.674;9.018;2024-03-25T02:10:08;4.70;99.90
4556;DHT22;2290;48.674;9.018;2024-03-25T02:12:45;4.70;99.90
4556;DHT22;2290;48.674;9.018;2024-03-25T02:15:12;4.70;99.90
4556;DHT22;2290;48.674;9.018;2024-03-25T02:17:41;4.80;99.90
4556;DHT22;2290;48.674;9.018;2024-03-25T02:20:07;4.80;99.90
4556;DHT22;2290;48.674;9.018;2024-03-25T02:22:34;4.90;99.90
4556;DHT22;2290;48.674;9.018;2024-03-25T02:25:06;5.00;99.90
4556;DHT22;2290;48.674;9.018;2024-03-25T02:27:34;5.10;99.90
4556;DHT22;2290;48.674;9.018;2024-03-25T02:30:09;5.10;99.90
4556;DHT22;2290;48.674;9.018;2024-03-25T02:32:40;5.00;99.90
4556;DHT22;2290;48.674;9.018;2024-03-25T02:35:09;5.10;99.90
4556;DHT22;2290;48.674;9.018;2024-03-25T02:37:39;5.10;99.90
4556;DHT22;2290;48.674;9.018;2024-03-25T02:40:07;5.10;99.90
4556;DHT22;2290;48.674;9.018;2024-03-25T02:42:35;5.10;99.90
4556;DHT22;2290;48.674;9.018;2024-03-25T02:45:02;5.10;99.90
4556;DHT22;2290;48.674;9.018;2024-03-25T02:47:27;5.10;99.90
4556;DHT22;2290;48.674;9.018;2024-03-25T02:49:53;5.10;99.90
4556;DHT22;2290;48.674;9.018;2024-03-25T02:52:19;5.10;99.90
4556;DHT22;2290;48.674;9.018;2024-03-25T02:54:45;5.10;99.90
4556;DHT22;2290;48.674;9.018;2024-03-25T02:57:11;5.10;99.90
4556;DHT22;2290;48.674;9.018;2024-03-25T02:59:36;5.00;99.90
4556;DHT22;2290;48.674;9.018;2024-03-25T03:02:03;5.00;99.90
4556;DHT22;2290;48.674;9.018;2024-03-25T03:04:29;5.00;99.90
4556;DHT22;2290;48.674;9.018;2024-03-25T03:06:55;5.10;99.90
4556;DHT22;2290;48.674;9.018;2024-03-25T03:09:21;5.00;99.90
4556;DHT22;2290;48.674;9.018;2024-03-25T03:11:46;5.00;99.90
4556;DHT22;2290;48.674;9.018;2024-03-25T03:14:12;5.00;99.90
4556;DHT22;2290;48.674;9.018;2024-03-25T03:16:38;5.00;99.90
4556;DHT22;2290;48.674;9.018;2024-03-25T03:19:03;5.10;99.90
4556;DHT22;2290;48.674;9.018;2024-03-25T03:21:29;5.10;99.90
4556;DHT22;2290;48.674;9.018;2024-03-25T03:23:55;5.10;99.90
4556;DHT22;2290;48.674;9.018;2024-03-25T03:26:21;5.00;99.90
4556;DHT22;2290;48.674;9.018;2024-03-25T03:28:47;5.10;99.90
4556;DHT22;2290;48.674;9.018;2024-03-25T03:31:12;5.00;99.90
4556;DHT22;2290;48.674;9.018;2024-03-25T03:33:38;5.00;99.90
4556;DHT22;2290;48.674;9.018;2024-03-25T03:36:03;4.90;99.90
4556;DHT22;2290;48.674;9.018;2024-03-25T03:38:29;5.00;99.90
4556;DHT22;2290;48.674;9.018;2024-03-25T03:41:02;5.10;99.90
4556;DHT22;2290;48.674;9.018;2024-03-25T03:43:28;5.00;99.90
4556;DHT22;2290;48.674;9.018;2024-03-25T03:45:54;5.00;99.90
4556;DHT22;2290;48.674;9.018;2024-03-25T03:48:20;5.10;99.90
4556;DHT22;2290;48.674;9.018;2024-03-25T03:50:46;5.00;99.90
4556;DHT22;2290;48.674;9.018;2024-03-25T03:53:12;5.00;99.90
4556;DHT22;2290;48.674;9.018;2024-03-25T03:55:37;5.10;99.90
4556;DHT22;2290;48.674;9.018;2024-03-25T03:58:03;5.10;99.90
4556;DHT22;2290;48.674;9.018;2024-03-25T04:00:29;5.10;99.90
4556;DHT22;2290;48.674;9.018;2024-03-25T04:02:54;5.00;99.90
4556;DHT22;2290;48.674;9.018;2024-03-25T04:05:20;5.00;99.90
4556;DHT22;2290;48.674;9.018;2024-03-25T04:07:46;5.00;99.90
4556;DHT22;2290;48.674;9.018;2024-03-25T04:10:11;5.00;99.90
4556;DHT22;2290;48.674;9.018;2024-03-25T04:12:38;5.00;99.90
4556;DHT22;2290;48.674;9.018;2024-03-25T04:15:04;5.00;99.90
4556;DHT22;2290;48.674;9.018;2024-03-25T04:17:30;4.90;99.90
4556;DHT22;2290;48.674;9.018;2024-03-25T04:19:58;5.00;99.90
4556;DHT22;2290;48.674;9.018;2024-03-25T04:22:25;4.80;99.90
4556;DHT22;2290;48.674;9.018;2024-03-25T04:24:51;4.80;99.90
4556;DHT22;2290;48.674;9.018;2024-03-25T04:27:16;4.80;99.90
4556;DHT22;2290;48.674;9.018;2024-03-25T04:29:45;4.80;99.90
4556;DHT22;2290;48.674;9.018;2024-03-25T04:32:11;4.80;99.90
4556;DHT22;2290;48.674;9.018;2024-03-25T04:34:37;4.80;99.90
4556;DHT22;2290;48.674;9.018;2024-03-25T04:37:03;4.80;99.90
4556;DHT22;2290;48.674;9.018;2024-03-25T04:39:30;4.80;99.90
4556;DHT22;2290;48.674;9.018;2024-03-25T04:41:55;4.80;99.90
4556;DHT22;2290;48.674;9.018;2024-03-25T04:44:21;4.90;99.90
4556;DHT22;2290;48.674;9.018;2024-03-25T04:46:47;4.70;99.90
4556;DHT22;2290;48.674;9.018;2024-03-25T04:49:13;4.80;99.90
4556;DHT22;2290;48.674;9.018;2024-03-25T04:51:38;4.80;99.90
4556;DHT22;2290;48.674;9.018;2024-03-25T04:54:05;4.70;99.90
4556;DHT22;2290;48.674;9.018;2024-03-25T04:56:30;4.80;99.90
4556;DHT22;2290;48.674;9.018;2024-03-25T04:58:57;4.70;99.90
4556;DHT22;2290;48.674;9.018;2024-03-25T05:01:27;4.70;99.90
4556;DHT22;2290;48.674;9.018;2024-03-25T05:03:53;4.70;99.90
4556;DHT22;2290;48.674;9.018;2024-03-25T05:06:19;4.70;99.90
4556;DHT22;2290;48.674;9.018;2024-03-25T05:08:44;4.70;99.90
4556;DHT22;2290;48.674;9.018;2024-03-25T05:11:10;4.60;99.90
4556;DHT22;2290;48.674;9.018;2024-03-25T05:13:36;4.60;99.90
4556;DHT22;2290;48.674;9.018;2024-03-25T05:16:03;4.60;99.90
4556;DHT22;2290;48.674;9.018;2024-03-25T05:18:29;4.60;99.90
4556;DHT22;2290;48.674;9.018;2024-03-25T05:20:54;4.60;99.90
4556;DHT22;2290;48.674;9.018;2024-03-25T05:23:21;4.50;99.90
4556;DHT22;2290;48.674;9.018;2024-03-25T05:25:48;4.50;99.90
4556;DHT22;2290;48.674;9.018;2024-03-25T05:28:13;4.60;99.90
4556;DHT22;2290;48.674;9.018;2024-03-25T05:30:39;4.60;99.90
4556;DHT22;2290;48.674;9.018;2024-03-25T05:33:05;4.60;99.90
4556;DHT22;2290;48.674;9.018;2024-03-25T05:35:30;4.50;99.90
4556;DHT22;2290;48.674;9.018;2024-03-25T05:37:59;4.50;99.90
4556;DHT22;2290;48.674;9.018;2024-03-25T05:40:25;4.50;99.90
4556;DHT22;2290;48.674;9.018;2024-03-25T05:42:51;4.50;99.90
4556;DHT22;2290;48.674;9.018;2024-03-25T05:45:16;4.60;99.90
4556;DHT22;2290;48.674;9.018;2024-03-25T05:47:42;4.60;99.90
4556;DHT22;2290;48.674;9.018;2024-03-25T05:50:10;4.60;99.90
4556;DHT22;2290;48.674;9.018;2024-03-25T05:52:36;4.60;99.90
4556;DHT22;2290;48.674;9.018;2024-03-25T05:55:03;4.60;99.90
4556;DHT22;2290;48.674;9.018;2024-03-25T05:57:30;4.60;99.90
4556;DHT22;2290;48.674;9.018;2024-03-25T05:59:57;4.70;99.90
4556;DHT22;2290;48.674;9.018;2024-03-25T06:02:26;4.70;99.90
4556;DHT22;2290;48.674;9.018;2024-03-25T06:04:51;4.60;99.90
4556;DHT22;2290;48.674;9.018;2024-03-25T06:07:17;4.60;99.90
4556;DHT22;2290;48.674;9.018;2024-03-25T06:09:44;4.60;99.90
4556;DHT22;2290;48.674;9.018;2024-03-25T06:12:09;4.60;99.90
4556;DHT22;2290;48.674;9.018;2024-03-25T06:14:35;4.50;99.90
4556;DHT22;2290;48.674;9.018;2024-03-25T06:17:01;4.50;99.90
4556;DHT22;2290;48.674;9.018;2024-03-25T06:19:28;4.50;99.90
4556;DHT22;2290;48.674;9.018;2024-03-25T06:21:53;4.50;99.90
4556;DHT22;2290;48.674;9.018;2024-03-25T06:24:19;4.50;99.90
4556;DHT22;2290;48.674;9.018;2024-03-25T06:26:44;4.50;99.90
4556;DHT22;2290;48.674;9.018;2024-03-25T06:29:10;4.60;99.90
4556;DHT22;2290;48.674;9.018;2024-03-25T06:31:36;4.60;99.90
4556;DHT22;2290;48.674;9.018;2024-03-25T06:34:20;4.50;99.90
4556;DHT22;2290;48.674;9.018;2024-03-25T06:36:47;4.50;99.90
4556;DHT22;2290;48.674;9.018;2024-03-25T06:39:15;4.60;99.90
4556;DHT22;2290;48.674;9.018;2024-03-25T06:41:41;4.60;99.90
4556;DHT22;2290;48.674;9.018;2024-03-25T06:44:08;4.60;99.90
4556;DHT22;2290;48.674;9.018;2024-03-25T06:46:33;4.60;99.90
4556;DHT22;2290;48.674;9.018;2024-03-25T06:48:59;4.60;99.90
4556;DHT22;2290;48.674;9.018;2024-03-25T06:51:25;4.70;99.90
4556;DHT22;2290;48.674;9.018;2024-03-25T06:53:51;4.70;99.90
4556;DHT22;2290;48.674;9.018;2024-03-25T06:56:17;4.80;99.90
4556;DHT22;2290;48.674;9.018;2024-03-25T06:58:42;4.80;99.90
4556;DHT22;2290;48.674;9.018;2024-03-25T07:01:09;4.90;99.90
4556;DHT22;2290;48.674;9.018;2024-03-25T07:03:39;4.90;99.90
4556;DHT22;2290;48.674;9.018;2024-03-25T07:06:06;5.00;99.90
4556;DHT22;2290;48.674;9.018;2024-03-25T07:08:32;5.00;99.90
4556;DHT22;2290;48.674;9.018;2024-03-25T07:10:59;5.10;99.90
4556;DHT22;2290;48.674;9.018;2024-03-25T07:13:25;5.10;99.90
4556;DHT22;2290;48.674;9.018;2024-03-25T07:15:51;5.00;99.90
4556;DHT22;2290;48.674;9.018;2024-03-25T07:18:17;5.10;99.90
4556;DHT22;2290;48.674;9.018;2024-03-25T07:20:46;5.10;99.90
4556;DHT22;2290;48.674;9.018;2024-03-25T07:23:11;5.10;99.90
4556;DHT22;2290;48.674;9.018;2024-03-25T07:25:37;5.20;99.90
4556;DHT22;2290;48.674;9.018;2024-03-25T07:28:03;5.30;99.90
4556;DHT22;2290;48.674;9.018;2024-03-25T07:30:29;5.40;99.90
4556;DHT22;2290;48.674;9.018;2024-03-25T07:32:56;5.60;99.90
4556;DHT22;2290;48.674;9.018;2024-03-25T07:35:22;5.60;99.90
4556;DHT22;2290;48.674;9.018;2024-03-25T07:37:47;5.70;99.90
4556;DHT22;2290;48.674;9.018;2024-03-25T07:40:18;5.80;99.90
4556;DHT22;2290;48.674;9.018;2024-03-25T07:42:45;5.90;99.90
4556;DHT22;2290;48.674;9.018;2024-03-25T07:45:11;6.10;99.90
4556;DHT22;2290;48.674;9.018;2024-03-25T07:47:36;6.20;99.90
4556;DHT22;2290;48.674;9.018;2024-03-25T07:50:02;6.20;99.90
4556;DHT22;2290;48.674;9.018;2024-03-25T07:52:29;6.20;99.90
4556;DHT22;2290;48.674;9.018;2024-03-25T07:54:55;6.20;99.90
4556;DHT22;2290;48.674;9.018;2024-03-25T07:57:21;6.30;99.90
4556;DHT22;2290;48.674;9.018;2024-03-25T07:59:46;6.40;99.90
4556;DHT22;2290;48.674;9.018;2024-03-25T08:02:12;6.60;99.90
4556;DHT22;2290;48.674;9.018;2024-03-25T08:04:38;6.80;99.90
4556;DHT22;2290;48.674;9.018;2024-03-25T08:07:03;6.90;99.90
4556;DHT22;2290;48.674;9.018;2024-03-25T08:09:31;7.10;99.90
4556;DHT22;2290;48.674;9.018;2024-03-25T08:11:56;7.10;99.90
4556;DHT22;2290;48.674;9.018;2024-03-25T08:14:22;7.00;99.90
4556;DHT22;2290;48.674;9.018;2024-03-25T08:16:48;7.00;99.90
4556;DHT22;2290;48.674;9.018;2024-03-25T08:19:14;7.00;99.90
4556;DHT22;2290;48.674;9.018;2024-03-25T08:21:40;7.20;99.90
4556;DHT22;2290;48.674;9.018;2024-03-25T08:24:05;7.20;99.90
4556;DHT22;2290;48.674;9.018;2024-03-25T08:26:31;7.20;99.90
4556;DHT22;2290;48.674;9.018;2024-03-25T08:28:58;7.20;99.90
4556;DHT22;2290;48.674;9.018;2024-03-25T08:31:23;7.30;99.90
4556;DHT22;2290;48.674;9.018;2024-03-25T08:33:49;7.40;99.90
4556;DHT22;2290;48.674;9.018;2024-03-25T08:36:14;7.60;99.90
4556;DHT22;2290;48.674;9.018;2024-03-25T08:38:40;7.70;99.90
4556;DHT22;2290;48.674;9.018;2024-03-25T08:41:06;7.90;99.90
4556;DHT22;2290;48.674;9.018;2024-03-25T08:43:31;8.00;99.90
4556;DHT22;2290;48.674;9.018;2024-03-25T08:45:57;8.30;99.90
4556;DHT22;2290;48.674;9.018;2024-03-25T08:48:24;8.50;99.90
4556;DHT22;2290;48.674;9.018;2024-03-25T08:50:49;8.70;99.90
4556;DHT22;2290;48.674;9.018;2024-03-25T08:53:15;8.80;99.90
4556;DHT22;2290;48.674;9.018;2024-03-25T08:55:46;8.80;99.90
4556;DHT22;2290;48.674;9.018;2024-03-25T08:58:14;8.70;99.90
4556;DHT22;2290;48.674;9.018;2024-03-25T09:00:41;8.60;99.90
4556;DHT22;2290;48.674;9.018;2024-03-25T09:03:06;8.60;99.90
4556;DHT22;2290;48.674;9.018;2024-03-25T09:05:33;8.60;99.90
4556;DHT22;2290;48.674;9.018;2024-03-25T09:07:59;8.50;99.90
4556;DHT22;2290;48.674;9.018;2024-03-25T09:10:25;8.50;99.90
4556;DHT22;2290;48.674;9.018;2024-03-25T09:13:09;8.40;99.90
4556;DHT22;2290;48.674;9.018;2024-03-25T09:15:35;8.40;99.90
4556;DHT22;2290;48.674;9.018;2024-03-25T09:18:01;8.40;99.90
4556;DHT22;2290;48.674;9.018;2024-03-25T09:20:26;8.40;99.90
4556;DHT22;2290;48.674;9.018;2024-03-25T09:22:52;8.50;99.90
4556;DHT22;2290;48.674;9.018;2024-03-25T09:25:18;8.50;99.90
4556;DHT22;2290;48.674;9.018;2024-03-25T09:27:47;8.40;99.90
4556;DHT22;2290;48.674;9.018;2024-03-25T09:30:14;8.60;99.90
4556;DHT22;2290;48.674;9.018;2024-03-25T09:32:40;8.90;99.90
4556;DHT22;2290;48.674;9.018;2024-03-25T09:35:07;9.00;99.90
4556;DHT22;2290;48.674;9.018;2024-03-25T09:37:33;9.10;99.90
4556;DHT22;2290;48.674;9.018;2024-03-25T09:39:59;9.30;99.90
4556;DHT22;2290;48.674;9.018;2024-03-25T09:42:52;9.50;99.90
4556;DHT22;2290;48.674;9.018;2024-03-25T09:45:18;9.50;99.90
4556;DHT22;2290;48.674;9.018;2024-03-25T09:47:48;9.40;99.90
4556;DHT22;2290;48.674;9.018;2024-03-25T09:50:14;9.30;99.90
4556;DHT22;2290;48.674;9.018;2024-03-25T09:52:45;9.30;99.90
4556;DHT22;2290;48.674;9.018;2024-03-25T09:55:10;9.30;99.90
4556;DHT22;2290;48.674;9.018;2024-03-25T09:57:36;9.50;99.90
4556;DHT22;2290;48.674;9.018;2024-03-25T10:00:05;9.60;99.90
4556;DHT22;2290;48.674;9.018;2024-03-25T10:02:32;9.70;99.90
4556;DHT22;2290;48.674;9.018;2024-03-25T10:04:59;9.70;99.90
4556;DHT22;2290;48.674;9.018;2024-03-25T10:07:26;9.80;99.90
4556;DHT22;2290;48.674;9.018;2024-03-25T10:09:53;9.60;99.90
4556;DHT22;2290;48.674;9.018;2024-03-25T10:12:19;9.50;99.90
4556;DHT22;2290;48.674;9.018;2024-03-25T10:14:45;9.40;99.90
4556;DHT22;2290;48.674;9.018;2024-03-25T10:17:11;9.40;99.90
4556;DHT22;2290;48.674;9.018;2024-03-25T10:19:36;9.30;99.90
4556;DHT22;2290;48.674;9.018;2024-03-25T10:22:09;9.30;99.90
4556;DHT22;2290;48.674;9.018;2024-03-25T10:27:04;9.40;99.90
4556;DHT22;2290;48.674;9.018;2024-03-25T10:29:30;9.50;99.90
4556;DHT22;2290;48.674;9.018;2024-03-25T10:32:03;9.50;99.90
4556;DHT22;2290;48.674;9.018;2024-03-25T10:34:31;9.50;99.90
4556;DHT22;2290;48.674;9.018;2024-03-25T10:36:57;9.50;99.90
4556;DHT22;2290;48.674;9.018;2024-03-25T10:39:27;9.40;99.90
4556;DHT22;2290;48.674;9.018;2024-03-25T10:41:58;9.40;99.90
4556;DHT22;2290;48.674;9.018;2024-03-25T10:44:26;9.40;99.90
4556;DHT22;2290;48.674;9.018;2024-03-25T10:46:58;9.40;99.90
4556;DHT22;2290;48.674;9.018;2024-03-25T10:49:42;9.40;99.90
4556;DHT22;2290;48.674;9.018;2024-03-25T10:52:11;9.20;99.90
4556;DHT22;2290;48.674;9.018;2024-03-25T10:54:39;9.30;99.90
4556;DHT22;2290;48.674;9.018;2024-03-25T10:57:07;9.30;99.90
4556;DHT22;2290;48.674;9.018;2024-03-25T10:59:35;9.30;99.90
4556;DHT22;2290;48.674;9.018;2024-03-25T11:02:08;9.30;99.90
4556;DHT22;2290;48.674;9.018;2024-03-25T11:04:35;9.30;99.90
4556;DHT22;2290;48.674;9.018;2024-03-25T11:07:09;9.40;99.90
4556;DHT22;2290;48.674;9.018;2024-03-25T11:09:36;9.50;99.90
4556;DHT22;2290;48.674;9.018;2024-03-25T11:12:01;9.50;99.90
4556;DHT22;2290;48.674;9.018;2024-03-25T11:14:29;9.60;99.90
4556;DHT22;2290;48.674;9.018;2024-03-25T11:16:58;9.60;99.90
4556;DHT22;2290;48.674;9.018;2024-03-25T11:19:28;9.80;99.90
4556;DHT22;2290;48.674;9.018;2024-03-25T11:22:09;9.90;99.90
4556;DHT22;2290;48.674;9.018;2024-03-25T11:24:36;9.90;99.90
4556;DHT22;2290;48.674;9.018;2024-03-25T11:27:06;10.10;99.90
4556;DHT22;2290;48.674;9.018;2024-03-25T11:29:32;10.40;99.90
4556;DHT22;2290;48.674;9.018;2024-03-25T11:32:03;10.70;99.90
4556;DHT22;2290;48.674;9.018;2024-03-25T11:34:29;11.10;99.90
4556;DHT22;2290;48.674;9.018;2024-03-25T11:36:54;11.50;99.90
4556;DHT22;2290;48.674;9.018;2024-03-25T11:39:22;11.60;99.90
4556;DHT22;2290;48.674;9.018;2024-03-25T11:41:48;11.60;99.90
4556;DHT22;2290;48.674;9.018;2024-03-25T11:44:13;11.80;99.90
4556;DHT22;2290;48.674;9.018;2024-03-25T11:46:40;12.20;99.90
4556;DHT22;2290;48.674;9.018;2024-03-25T11:49:13;12.50;99.90
4556;DHT22;2290;48.674;9.018;2024-03-25T11:51:40;12.80;99.90
4556;DHT22;2290;48.674;9.018;2024-03-25T11:54:07;13.00;99.90
4556;DHT22;2290;48.674;9.018;2024-03-25T11:56:34;13.20;99.20
4556;DHT22;2290;48.674;9.018;2024-03-25T11:58:59;13.20;98.20
4556;DHT22;2290;48.674;9.018;2024-03-25T12:01:26;13.20;99.80
4556;DHT22;2290;48.674;9.018;2024-03-25T12:03:52;13.10;99.90
4556;DHT22;2290;48.674;9.018;2024-03-25T12:06:17;12.80;99.90
4556;DHT22;2290;48.674;9.018;2024-03-25T12:08:43;12.50;99.90
4556;DHT22;2290;48.674;9.018;2024-03-25T12:11:27;12.50;99.90
4556;DHT22;2290;48.674;9.018;2024-03-25T12:13:53;12.70;99.90
4556;DHT22;2290;48.674;9.018;2024-03-25T12:16:19;13.00;99.90
4556;DHT22;2290;48.674;9.018;2024-03-25T12:18:45;12.90;99.90
4556;DHT22;2290;48.674;9.018;2024-03-25T12:21:10;13.10;99.90
4556;DHT22;2290;48.674;9.018;2024-03-25T12:23:36;13.00;99.90
4556;DHT22;2290;48.674;9.018;2024-03-25T12:26:03;12.80;99.60
4556;DHT22;2290;48.674;9.018;2024-03-25T12:28:31;12.60;99.90
4556;DHT22;2290;48.674;9.018;2024-03-25T12:30:57;12.30;99.90
4556;DHT22;2290;48.674;9.018;2024-03-25T12:33:23;12.50;99.90
4556;DHT22;2290;48.674;9.018;2024-03-25T12:35:50;12.70;99.90
4556;DHT22;2290;48.674;9.018;2024-03-25T12:38:26;12.80;99.80
4556;DHT22;2290;48.674;9.018;2024-03-25T12:40:54;13.20;99.90
4556;DHT22;2290;48.674;9.018;2024-03-25T12:43:19;13.40;99.90
4556;DHT22;2290;48.674;9.018;2024-03-25T12:45:45;13.70;99.90
4556;DHT22;2290;48.674;9.018;2024-03-25T12:48:11;13.90;99.90
4556;DHT22;2290;48.674;9.018;2024-03-25T12:50:37;14.10;99.30
4556;DHT22;2290;48.674;9.018;2024-03-25T12:53:03;14.20;99.80
4556;DHT22;2290;48.674;9.018;2024-03-25T12:55:29;13.90;98.80
4556;DHT22;2290;48.674;9.018;2024-03-25T12:57:55;13.70;98.60
4556;DHT22;2290;48.674;9.018;2024-03-25T13:00:22;13.50;98.50
4556;DHT22;2290;48.674;9.018;2024-03-25T13:02:48;13.70;99.70
4556;DHT22;2290;48.674;9.018;2024-03-25T13:05:14;14.00;98.50
4556;DHT22;2290;48.674;9.018;2024-03-25T13:07:39;14.20;96.90
4556;DHT22;2290;48.674;9.018;2024-03-25T13:10:05;14.40;95.80
4556;DHT22;2290;48.674;9.018;2024-03-25T13:12:31;14.40;96.60
4556;DHT22;2290;48.674;9.018;2024-03-25T13:14:58;14.50;96.00
4556;DHT22;2290;48.674;9.018;2024-03-25T13:17:24;14.50;94.70
4556;DHT22;2290;48.674;9.018;2024-03-25T13:19:50;14.60;94.20
4556;DHT22;2290;48.674;9.018;2024-03-25T13:22:16;14.40;95.80
4556;DHT22;2290;48.674;9.018;2024-03-25T13:24:41;14.60;95.10
4556;DHT22;2290;48.674;9.018;2024-03-25T13:27:07;14.80;95.10
4556;DHT22;2290;48.674;9.018;2024-03-25T13:29:32;15.00;94.90
4556;DHT22;2290;48.674;9.018;2024-03-25T13:32:01;15.30;93.90
4556;DHT22;2290;48.674;9.018;2024-03-25T13:34:27;15.20;93.60
4556;DHT22;2290;48.674;9.018;2024-03-25T13:36:52;15.60;94.20
4556;DHT22;2290;48.674;9.018;2024-03-25T13:39:18;15.50;93.20
4556;DHT22;2290;48.674;9.018;2024-03-25T13:41:43;15.50;92.30
4556;DHT22;2290;48.674;9.018;2024-03-25T13:44:12;15.50;92.70
4556;DHT22;2290;48.674;9.018;2024-03-25T13:46:38;15.50;93.20
4556;DHT22;2290;48.674;9.018;2024-03-25T13:49:03;15.80;93.50
4556;DHT22;2290;48.674;9.018;2024-03-25T13:51:30;16.10;92.80
4556;DHT22;2290;48.674;9.018;2024-03-25T13:53:56;16.50;92.70
4556;DHT22;2290;48.674;9.018;2024-03-25T13:56:21;16.60;92.40
4556;DHT22;2290;48.674;9.018;2024-03-25T13:58:47;16.60;92.00
4556;DHT22;2290;48.674;9.018;2024-03-25T14:01:12;16.70;92.90
4556;DHT22;2290;48.674;9.018;2024-03-25T14:03:38;16.70;92.40
4556;DHT22;2290;48.674;9.018;2024-03-25T14:06:04;16.70;92.80
4556;DHT22;2290;48.674;9.018;2024-03-25T14:08:29;16.50;92.50
4556;DHT22;2290;48.674;9.018;2024-03-25T14:11:02;16.50;93.60
4556;DHT22;2290;48.674;9.018;2024-03-25T14:13:28;16.70;92.20
4556;DHT22;2290;48.674;9.018;2024-03-25T14:15:53;16.90;91.90
4556;DHT22;2290;48.674;9.018;2024-03-25T14:18:19;17.20;91.80
4556;DHT22;2290;48.674;9.018;2024-03-25T14:20:45;17.30;92.00
4556;DHT22;2290;48.674;9.018;2024-03-25T14:23:10;17.50;91.90
4556;DHT22;2290;48.674;9.018;2024-03-25T14:25:37;17.70;90.60
4556;DHT22;2290;48.674;9.018;2024-03-25T14:28:03;17.60;90.70
4556;DHT22;2290;48.674;9.018;2024-03-25T14:30:30;17.10;90.60
4556;DHT22;2290;48.674;9.018;2024-03-25T14:32:55;17.30;91.20
4556;DHT22;2290;48.674;9.018;2024-03-25T14:35:21;17.80;90.80
4556;DHT22;2290;48.674;9.018;2024-03-25T14:37:48;18.10;90.30
4556;DHT22;2290;48.674;9.018;2024-03-25T14:40:15;18.30;90.30
4556;DHT22;2290;48.674;9.018;2024-03-25T14:42:42;18.90;86.70
4556;DHT22;2290;48.674;9.018;2024-03-25T14:45:09;19.50;87.70
4556;DHT22;2290;48.674;9.018;2024-03-25T14:47:35;20.80;88.60
4556;DHT22;2290;48.674;9.018;2024-03-25T14:50:01;21.70;86.30
4556;DHT22;2290;48.674;9.018;2024-03-25T14:52:26;22.70;84.00
4556;DHT22;2290;48.674;9.018;2024-03-25T14:54:52;23.50;81.30
4556;DHT22;2290;48.674;9.018;2024-03-25T14:57:18;24.00;77.80
4556;DHT22;2290;48.674;9.018;2024-03-25T14:59:43;25.00;75.80
4556;DHT22;2290;48.674;9.018;2024-03-25T15:02:09;25.40;74.30
4556;DHT22;2290;48.674;9.018;2024-03-25T15:04:41;24.60;72.70
4556;DHT22;2290;48.674;9.018;2024-03-25T15:07:09;25.00;71.00
4556;DHT22;2290;48.674;9.018;2024-03-25T15:09:35;24.90;71.50
4556;DHT22;2290;48.674;9.018;2024-03-25T15:12:01;25.30;68.70
4556;DHT22;2290;48.674;9.018;2024-03-25T15:14:28;25.30;69.30
4556;DHT22;2290;48.674;9.018;2024-03-25T15:16:59;25.60;70.10
4556;DHT22;2290;48.674;9.018;2024-03-25T15:19:25;25.80;66.10
4556;DHT22;2290;48.674;9.018;2024-03-25T15:21:50;25.70;64.90
4556;DHT22;2290;48.674;9.018;2024-03-25T15:24:16;26.00;63.20
4556;DHT22;2290;48.674;9.018;2024-03-25T15:26:41;26.30;63.60
4556;DHT22;2290;48.674;9.018;2024-03-25T15:29:07;26.70;61.00
4556;DHT22;2290;48.674;9.018;2024-03-25T15:31:33;26.70;61.40
4556;DHT22;2290;48.674;9.018;2024-03-25T15:33:59;26.90;59.10
4556;DHT22;2290;48.674;9.018;2024-03-25T15:36:25;27.30;59.40
4556;DHT22;2290;48.674;9.018;2024-03-25T15:38:54;27.50;59.10
4556;DHT22;2290;48.674;9.018;2024-03-25T15:41:20;27.90;57.40
4556;DHT22;2290;48.674;9.018;2024-03-25T15:43:45;27.30;56.90
4556;DHT22;2290;48.674;9.018;2024-03-25T15:46:11;27.00;56.80
4556;DHT22;2290;48.674;9.018;2024-03-25T15:48:37;27.40;57.50
4556;DHT22;2290;48.674;9.018;2024-03-25T15:51:03;27.50;56.40
4556;DHT22;2290;48.674;9.018;2024-03-25T15:53:30;28.00;54.60
4556;DHT22;2290;48.674;9.018;2024-03-25T15:55:55;28.30;54.60
4556;DHT22;2290;48.674;9.018;2024-03-25T15:58:21;29.10;53.70
4556;DHT22;2290;48.674;9.018;2024-03-25T16:00:48;29.10;51.70
4556;DHT22;2290;48.674;9.018;2024-03-25T16:03:13;29.10;51.30
4556;DHT22;2290;48.674;9.018;2024-03-25T16:05:39;29.10;51.60
4556;DHT22;2290;48.674;9.018;2024-03-25T16:08:06;29.30;50.40
4556;DHT22;2290;48.674;9.018;2024-03-25T16:10:34;29.40;50.70